EDDP

Leipzig Halle Airport

Leipzig, Germany
METAR EDDP 231550Z 05012KT CAVOK M02/M10 Q1024 NOSIG
Observed Flight Rules
Feb-23 @ 15:50 UTC (43 minutes ago) Visual Flight Rules
Wind Visibility Clouds
50° at 12 knots 10,000+ meters
  • Clear skies
Temperatures Readings
Current -2°C / 28°F
Dewpoint -10°C / 14°F
Humidity 55%
Altimeter 30.24" Hg
Pressure 1024 hPa
Elevation 149
METAR EDDP 231550Z 05012KT CAVOK M02/M10 Q1024 NOSIG
Observed Flight Rules
Feb-23 @ 15:50 UTC
(43 minutes ago)
VFR
Wind Visibility
50° at 12 knots 10,000+ meters
Clouds
  • Clear skies
Temperature Dewpoint
-2°C / 28°F -10°C / 14°F
Humidity Altimeter Pressure
55% 30.24" Hg 1024 hPa